Main page
METAR-TAF:

METAR-TAF

Airports :

Heringsdorf Airport

Heringsdorf, Germany

latitude: 53-53N, longitude: 014-09E, elevation: 28 m

Current weather observation

The report was made 39 minutes ago, at 16:50 UTC
Wind 3 kt from the Northeast
Temperature 18°C
Humidity 88%
Pressure 1017 hPa
Visibility 10 km or more
no clouds below 1500 m and no cumulonimbus

METAR: EDAH 251650Z 04003KT CAVOK 18/16 Q1017

Time: 19:29 (17:29 UTC)

Forecast

The report was made 3 hours and 29 minutes ago, at 14:00 UTC
Forecast valid from 25 at 15 UTC to 25 at 24 UTC
Wind 7 kt from the Southeast
Visibility 10 km or more
Few clouds at a height of 4000 ft
Probability 30% :
Temporary
from 25 at 16 UTC to 25 at 21 UTC
Wind 15 kt from the South/Southeast with gusts up to 25 kt
Visibility: 4000 m
Broken clouds at a height of 2500 ft, Cumulonimbus.
thunderstorm, rain,

TAF: EDAH 251400Z 2515/2524 14007KT 9999 FEW040 PROB30 TEMPO 2516/2521 16015G25KT 4000 TSRA BKN025CB

Weather observations and forecasts of more than 4000 airports (METAR and TAF reports).

The available stations are represented by yellow and red dots on the map.

Hover mouse over dot to see the name of the station.

Then click to see weather observations and forecasts.

To change the map : click on the green buttons with a black cross to zoom in, on the green button with a dash to zoom out, or on the green arrows for adjacent maps.


METAR-TAF: